Sovereign — 9HUE9 — position and weather

sailwx.info

Track history (hours):
 
Tides and Currents Weather Stations Pressure Air Temp Water Temp Dewpoint Dewpoint Depression Visibility Wind Speed Wind Dir Waves Ship Positions

Sovereign

Last reported at 2017-Oct-18 12:29 UTC. Time now 2017-Oct-18 13:00 UTC.
Position N 43°33' E 010°18'.

Length 269 m; draft 7.8 m.

Type: Passenger vessel. MMSI: 249539000.

Date/timePositionNaut miles runAvg speedWind from/ knotsBaromVisibWave heightAir tempDewpointWater temp
2017-Oct-18 12:29N 43°33' E 010°18'0 0.0
2017-Oct-18 11:56N 43°33' E 010°18'0 0.0
2017-Oct-18 11:25N 43°33' E 010°18'0 0.0
2017-Oct-18 10:55N 43°33' E 010°18'0 0.0
2017-Oct-18 10:25N 43°33' E 010°18'0 0.0
2017-Oct-18 09:55N 43°33' E 010°18'0 0.0
2017-Oct-18 09:25N 43°33' E 010°18'0 0.0
2017-Oct-18 08:49N 43°33' E 010°18'0 0.0
2017-Oct-18 08:25N 43°33' E 010°18'0 0.0
2017-Oct-18 07:55N 43°33' E 010°18'0 0.0
2017-Oct-18 07:25N 43°33' E 010°18'0 0.0
2017-Oct-18 06:49N 43°33' E 010°18'0 0.0
2017-Oct-18 06:25N 43°33' E 010°18'0 0.0
2017-Oct-18 05:55N 43°33' E 010°18'0 0.4
2017-Oct-18 05:30N 43°33' E 010°18'2 4.1
2017-Oct-18 05:00N 43°32' E 010°16'5 9.6
2017-Oct-18 04:30N 43°28' E 010°13'510.9
2017-Oct-18 04:00N 43°22' E 010°11'612.2
2017-Oct-18 03:30N 43°16' E 010°09'612.0
2017-Oct-18 03:00N 43°10' E 010°08'711.8
2017-Oct-18 02:26N 43°04' E 010°06'511.8
2017-Oct-18 02:00N 42°59' E 010°05'611.9
2017-Oct-18 01:30N 42°53' E 010°04'612.0
2017-Oct-18 01:00N 42°47' E 010°02'714.3
2017-Oct-18 00:31N 42°41' E 010°07'1014.4
2017-Oct-17 23:48N 42°33' E 010°16'414.3
2017-Oct-17 23:31N 42°30' E 010°19'714.5
2017-Oct-17 23:00N 42°24' E 010°26'714.5
2017-Oct-17 22:30N 42°19' E 010°33'714.6
2017-Oct-17 22:01N 42°13' E 010°39'714.4
2017-Oct-17 21:30N 42°08' E 010°45'814.1
2017-Oct-17 20:58N 42°03' E 010°54'714.7
2017-Oct-17 20:30N 42°01' E 011°02'714.1
2017-Oct-17 20:00N 42°01' E 011°12'714.6
2017-Oct-17 19:30N 42°03' E 011°21'23 1.4
2017-Oct-17 03:35N 41°51' E 011°48'9013.9
2017-Oct-16 21:08N 40°45' E 013°09'214.9
2017-Oct-16 21:00N 40°45' E 013°12'3915.8
2017-Oct-16 18:32N 40°38' E 014°02'016.4
2017-Oct-16 18:31N 40°39' E 014°03'816.6
2017-Oct-16 18:01N 40°44' E 014°11'714.3
2017-Oct-16 17:30N 40°50' E 014°17'1 1.8
2017-Oct-16 16:51N 40°50' E 014°15'0 0.0
2017-Oct-16 16:21N 40°50' E 014°15'0 0.0
2017-Oct-16 15:54N 40°50' E 014°15'0 0.0
2017-Oct-16 15:24N 40°50' E 014°15'0 0.0
2017-Oct-16 14:54N 40°50' E 014°15'0 0.0
2017-Oct-16 14:27N 40°50' E 014°15'0 0.0
2017-Oct-16 13:30N 40°50' E 014°15'0 0.0
2017-Oct-16 13:00N 40°50' E 014°15'0 0.0
2017-Oct-16 12:24N 40°50' E 014°15'0 0.0
2017-Oct-16 12:00N 40°50' E 014°15'0 0.0
2017-Oct-16 11:30N 40°50' E 014°15'0 0.0
2017-Oct-16 11:00N 40°50' E 014°15'0 0.0
2017-Oct-16 10:30N 40°50' E 014°15'0 0.0
2017-Oct-16 10:00N 40°50' E 014°15'0 0.0
2017-Oct-16 09:03N 40°50' E 014°15'0 0.0
2017-Oct-16 08:45N 40°50' E 014°15'0 0.0
2017-Oct-16 08:27N 40°50' E 014°15'0 0.0
2017-Oct-16 08:00N 40°50' E 014°15'0 0.0
2017-Oct-16 07:30N 40°50' E 014°15'0 0.0
2017-Oct-16 06:45N 40°50' E 014°15'0 0.0
2017-Oct-16 06:28N 40°50' E 014°15'2 3.2
2017-Oct-16 05:56N 40°49' E 014°17'611.1
2017-Oct-16 05:23N 40°45' E 014°12'1311.4
2017-Oct-16 04:16N 40°36' E 013°59'612.1
2017-Oct-16 03:45N 40°33' E 013°52'612.1
2017-Oct-16 03:18N 40°30' E 013°46'311.6
2017-Oct-16 03:00N 40°29' E 013°42'612.3
2017-Oct-16 02:30N 40°31' E 013°34'612.3
2017-Oct-16 02:00N 40°32' E 013°26'1612.0
2017-Oct-16 00:40N 40°35' E 013°05'312.0
2017-Oct-16 00:23N 40°36' E 013°01'812.0
2017-Oct-15 23:44N 40°38' E 012°51'3212.8
2017-Oct-15 21:15N 40°47' E 012°11'514.8
2017-Oct-15 20:53N 40°48' E 012°04'614.7
2017-Oct-15 20:30N 40°50' E 011°57'915.0
2017-Oct-15 19:55N 40°52' E 011°45'715.3
2017-Oct-15 19:28N 40°54' E 011°36'715.2
2017-Oct-15 19:00N 40°56' E 011°28'815.2
2017-Oct-15 18:29N 40°58' E 011°18'815.0
2017-Oct-15 17:58N 40°60' E 011°08'714.9
2017-Oct-15 17:30N 41°02' E 010°59'914.8
2017-Oct-15 16:55N 41°04' E 010°48'1815.4
2017-Oct-15 15:45N 41°09' E 010°25'715.3
2017-Oct-15 15:19N 41°11' E 010°16'715.1
2017-Oct-15 14:53N 41°12' E 010°08'1314.7
2017-Oct-15 14:00N 41°16' E 009°51'34616.2
2017-Oct-14 16:43N 41°16' E 002°11'2 0.2
2017-Oct-14 06:04N 41°18' E 002°10'0 9.0
2017-Oct-14 06:00N 41°18' E 002°11'9613.3
2017-Oct-13 22:48N 42°02' E 004°04'514.1
2017-Oct-13 22:27N 42°05' E 004°09'914.0
2017-Oct-13 21:50N 42°10' E 004°19'714.1
2017-Oct-13 21:22N 42°14' E 004°27'716.4
2017-Oct-13 20:58N 42°17' E 004°34'1316.4
2017-Oct-13 20:10N 42°25' E 004°48'316.7
2017-Oct-13 20:00N 42°26' E 004°51'1316.8
2017-Oct-13 19:13N 42°34' E 005°06'816.9
2017-Oct-13 18:46N 42°38' E 005°15'716.9
2017-Oct-13 18:23N 42°42' E 005°22'1116.8
2017-Oct-13 17:44N 42°48' E 005°34'2415.1
2017-Oct-13 16:08N 43°05' E 005°57'1 8.3
2017-Oct-13 16:01N 43°05' E 005°56'2 3.4
2017-Oct-13 15:29N 43°06' E 005°54'0 0.0
2017-Oct-13 14:59N 43°06' E 005°54'0 0.0
2017-Oct-13 14:29N 43°06' E 005°54'0 0.0
2017-Oct-13 13:56N 43°06' E 005°54'0 0.0
2017-Oct-13 13:26N 43°06' E 005°54'0 0.0
2017-Oct-13 12:59N 43°06' E 005°54'0 0.0
2017-Oct-13 12:29N 43°06' E 005°54'0 0.0
2017-Oct-13 11:59N 43°06' E 005°54'0 0.0
2017-Oct-13 11:26N 43°06' E 005°54'0 0.0
2017-Oct-13 10:59N 43°06' E 005°54'0 0.0
2017-Oct-13 10:29N 43°06' E 005°54'0 0.0
2017-Oct-13 09:59N 43°06' E 005°54'0 0.0
2017-Oct-13 09:29N 43°06' E 005°54'0 0.0
2017-Oct-13 08:59N 43°06' E 005°54'0 0.0
2017-Oct-13 08:26N 43°06' E 005°54'0 0.0
2017-Oct-13 07:56N 43°06' E 005°54'0 0.0
2017-Oct-13 07:29N 43°06' E 005°54'0 0.0
2017-Oct-13 06:59N 43°06' E 005°54'0 0.0
2017-Oct-13 06:29N 43°06' E 005°54'0 0.0
2017-Oct-13 05:59N 43°06' E 005°54'0 0.6
2017-Oct-13 05:31N 43°06' E 005°54'2 4.7
2017-Oct-13 05:00N 43°05' E 005°57'2 3.5
2017-Oct-13 04:30N 43°04' E 005°59'5 7.8
2017-Oct-13 03:56N 43°00' E 006°01'3 7.4
2017-Oct-13 03:30N 42°57' E 006°02'4 7.8
2017-Oct-13 03:00N 42°53' E 006°04'4 7.8
2017-Oct-13 02:30N 42°50' E 006°05'4 8.1
2017-Oct-13 02:00N 42°46' E 006°07'4 8.0
2017-Oct-13 01:30N 42°44' E 006°12'4 8.4
2017-Oct-13 00:58N 42°44' E 006°18'8 8.2
2017-Oct-12 23:59N 42°44' E 006°29'13 7.6
2017-Oct-12 22:17N 42°52' E 006°43'18 8.2
2017-Oct-12 20:07N 43°05' E 006°59'1 8.4
2017-Oct-12 19:58N 43°06' E 007°00'4 8.3
2017-Oct-12 19:30N 43°09' E 007°04'4 8.5
2017-Oct-12 19:00N 43°12' E 007°07'4 8.6
2017-Oct-12 18:30N 43°16' E 007°11'4 8.5
2017-Oct-12 18:00N 43°19' E 007°15'4 8.3
2017-Oct-12 17:30N 43°23' E 007°17'4 8.2
2017-Oct-12 17:00N 43°27' E 007°17'4 8.3
2017-Oct-12 16:30N 43°31' E 007°18'4 8.3
2017-Oct-12 16:00N 43°35' E 007°18'4 8.0
2017-Oct-12 15:30N 43°39' E 007°18'2 0.2
2017-Oct-12 05:11N 43°41' E 007°19'1 4.8
2017-Oct-12 04:59N 43°40' E 007°19'5311.6
2017-Oct-12 00:28N 43°36' E 008°31'611.9
2017-Oct-11 23:59N 43°36' E 008°39'611.8
2017-Oct-11 23:30N 43°36' E 008°47'612.4
2017-Oct-11 23:00N 43°35' E 008°55'612.4
2017-Oct-11 22:30N 43°35' E 009°04'612.0
2017-Oct-11 22:00N 43°35' E 009°12'714.0
2017-Oct-11 21:30N 43°34' E 009°22'713.9
2017-Oct-11 21:00N 43°33' E 009°31'714.0
2017-Oct-11 20:30N 43°33' E 009°41'714.0
2017-Oct-11 20:01N 43°32' E 009°51'713.6
2017-Oct-11 19:30N 43°32' E 009°60'713.5
2017-Oct-11 19:00N 43°31' E 010°09'611.6
2017-Oct-11 18:30N 43°32' E 010°17'1 2.2
2017-Oct-11 18:00N 43°33' E 010°18'0 0.0
2017-Oct-11 17:30N 43°33' E 010°18'0 0.0
2017-Oct-11 17:00N 43°33' E 010°18'63 3.7
2017-Oct-11 00:00N 42°30' E 010°18'713.7
2017-Oct-10 23:30N 42°25' E 010°24'713.8
2017-Oct-10 23:00N 42°20' E 010°31'713.9
2017-Oct-10 22:30N 42°15' E 010°37'713.7
2017-Oct-10 22:00N 42°10' E 010°43'178 6.4
2017-Oct-09 18:16N 40°44' E 014°10'3 9.7
2017-Oct-09 18:00N 40°45' E 014°13'510.6
2017-Oct-09 17:30N 40°50' E 014°17'1 1.8
2017-Oct-09 16:56N 40°50' E 014°15'0 0.0
2017-Oct-09 16:26N 40°50' E 014°15'0 0.0
2017-Oct-09 15:59N 40°50' E 014°15'0 0.0
2017-Oct-09 15:29N 40°50' E 014°15'0 0.0
2017-Oct-09 14:59N 40°50' E 014°15'0 0.0
2017-Oct-09 14:11N 40°50' E 014°15'0 0.0
2017-Oct-09 07:05N 40°50' E 014°15'0 0.0
2017-Oct-09 06:53N 40°50' E 014°15'0 0.0
2017-Oct-09 06:30N 40°50' E 014°15'2 3.3
2017-Oct-09 05:59N 40°49' E 014°17'  
Track history (hours):
 
Tides and Currents Weather Stations Pressure Air Temp Water Temp Dewpoint Dewpoint Depression Visibility Wind Speed Wind Dir Waves Ship Positions

Sovereign

Last reported at 2017-Oct-18 12:29 UTC. Time now 2017-Oct-18 13:00 UTC.
Position N 43°33' E 010°18'.

Length 269 m; draft 7.8 m.

Type: Passenger vessel. MMSI: 249539000.

Date/timePositionNaut miles runAvg speedWind from/ knotsBaromVisibWave heightAir tempDewpointWater temp
2017-Oct-18 12:29N 43°33' E 010°18'0 0.0
2017-Oct-18 11:56N 43°33' E 010°18'0 0.0
2017-Oct-18 11:25N 43°33' E 010°18'0 0.0
2017-Oct-18 10:55N 43°33' E 010°18'0 0.0
2017-Oct-18 10:25N 43°33' E 010°18'0 0.0
2017-Oct-18 09:55N 43°33' E 010°18'0 0.0
2017-Oct-18 09:25N 43°33' E 010°18'0 0.0
2017-Oct-18 08:49N 43°33' E 010°18'0 0.0
2017-Oct-18 08:25N 43°33' E 010°18'0 0.0
2017-Oct-18 07:55N 43°33' E 010°18'0 0.0
2017-Oct-18 07:25N 43°33' E 010°18'0 0.0
2017-Oct-18 06:49N 43°33' E 010°18'0 0.0
2017-Oct-18 06:25N 43°33' E 010°18'0 0.0
2017-Oct-18 05:55N 43°33' E 010°18'0 0.4
2017-Oct-18 05:30N 43°33' E 010°18'2 4.1
2017-Oct-18 05:00N 43°32' E 010°16'5 9.6
2017-Oct-18 04:30N 43°28' E 010°13'510.9
2017-Oct-18 04:00N 43°22' E 010°11'612.2
2017-Oct-18 03:30N 43°16' E 010°09'612.0
2017-Oct-18 03:00N 43°10' E 010°08'711.8
2017-Oct-18 02:26N 43°04' E 010°06'511.8
2017-Oct-18 02:00N 42°59' E 010°05'611.9
2017-Oct-18 01:30N 42°53' E 010°04'612.0
2017-Oct-18 01:00N 42°47' E 010°02'714.3
2017-Oct-18 00:31N 42°41' E 010°07'1014.4
2017-Oct-17 23:48N 42°33' E 010°16'414.3
2017-Oct-17 23:31N 42°30' E 010°19'714.5
2017-Oct-17 23:00N 42°24' E 010°26'714.5
2017-Oct-17 22:30N 42°19' E 010°33'714.6
2017-Oct-17 22:01N 42°13' E 010°39'714.4
2017-Oct-17 21:30N 42°08' E 010°45'814.1
2017-Oct-17 20:58N 42°03' E 010°54'714.7
2017-Oct-17 20:30N 42°01' E 011°02'714.1
2017-Oct-17 20:00N 42°01' E 011°12'714.6
2017-Oct-17 19:30N 42°03' E 011°21'23 1.4
2017-Oct-17 03:35N 41°51' E 011°48'9013.9
2017-Oct-16 21:08N 40°45' E 013°09'214.9
2017-Oct-16 21:00N 40°45' E 013°12'3915.8
2017-Oct-16 18:32N 40°38' E 014°02'016.4
2017-Oct-16 18:31N 40°39' E 014°03'816.6
2017-Oct-16 18:01N 40°44' E 014°11'714.3
2017-Oct-16 17:30N 40°50' E 014°17'1 1.8
2017-Oct-16 16:51N 40°50' E 014°15'0 0.0
2017-Oct-16 16:21N 40°50' E 014°15'0 0.0
2017-Oct-16 15:54N 40°50' E 014°15'0 0.0
2017-Oct-16 15:24N 40°50' E 014°15'0 0.0
2017-Oct-16 14:54N 40°50' E 014°15'0 0.0
2017-Oct-16 14:27N 40°50' E 014°15'0 0.0
2017-Oct-16 13:30N 40°50' E 014°15'0 0.0
2017-Oct-16 13:00N 40°50' E 014°15'0 0.0
2017-Oct-16 12:24N 40°50' E 014°15'0 0.0
2017-Oct-16 12:00N 40°50' E 014°15'0 0.0
2017-Oct-16 11:30N 40°50' E 014°15'0 0.0
2017-Oct-16 11:00N 40°50' E 014°15'0 0.0
2017-Oct-16 10:30N 40°50' E 014°15'0 0.0
2017-Oct-16 10:00N 40°50' E 014°15'0 0.0
2017-Oct-16 09:03N 40°50' E 014°15'0 0.0
2017-Oct-16 08:45N 40°50' E 014°15'0 0.0
2017-Oct-16 08:27N 40°50' E 014°15'0 0.0
2017-Oct-16 08:00N 40°50' E 014°15'0 0.0
2017-Oct-16 07:30N 40°50' E 014°15'0 0.0
2017-Oct-16 06:45N 40°50' E 014°15'0 0.0
2017-Oct-16 06:28N 40°50' E 014°15'2 3.2
2017-Oct-16 05:56N 40°49' E 014°17'611.1
2017-Oct-16 05:23N 40°45' E 014°12'1311.4
2017-Oct-16 04:16N 40°36' E 013°59'612.1
2017-Oct-16 03:45N 40°33' E 013°52'612.1
2017-Oct-16 03:18N 40°30' E 013°46'311.6
2017-Oct-16 03:00N 40°29' E 013°42'612.3
2017-Oct-16 02:30N 40°31' E 013°34'612.3
2017-Oct-16 02:00N 40°32' E 013°26'1612.0
2017-Oct-16 00:40N 40°35' E 013°05'312.0
2017-Oct-16 00:23N 40°36' E 013°01'812.0
2017-Oct-15 23:44N 40°38' E 012°51'3212.8
2017-Oct-15 21:15N 40°47' E 012°11'514.8
2017-Oct-15 20:53N 40°48' E 012°04'614.7
2017-Oct-15 20:30N 40°50' E 011°57'915.0
2017-Oct-15 19:55N 40°52' E 011°45'715.3
2017-Oct-15 19:28N 40°54' E 011°36'715.2
2017-Oct-15 19:00N 40°56' E 011°28'815.2
2017-Oct-15 18:29N 40°58' E 011°18'815.0
2017-Oct-15 17:58N 40°60' E 011°08'714.9
2017-Oct-15 17:30N 41°02' E 010°59'914.8
2017-Oct-15 16:55N 41°04' E 010°48'1815.4
2017-Oct-15 15:45N 41°09' E 010°25'715.3
2017-Oct-15 15:19N 41°11' E 010°16'715.1
2017-Oct-15 14:53N 41°12' E 010°08'1314.7
2017-Oct-15 14:00N 41°16' E 009°51'34616.2
2017-Oct-14 16:43N 41°16' E 002°11'2 0.2
2017-Oct-14 06:04N 41°18' E 002°10'0 9.0
2017-Oct-14 06:00N 41°18' E 002°11'9613.3
2017-Oct-13 22:48N 42°02' E 004°04'514.1
2017-Oct-13 22:27N 42°05' E 004°09'914.0
2017-Oct-13 21:50N 42°10' E 004°19'714.1
2017-Oct-13 21:22N 42°14' E 004°27'716.4
2017-Oct-13 20:58N 42°17' E 004°34'1316.4
2017-Oct-13 20:10N 42°25' E 004°48'316.7
2017-Oct-13 20:00N 42°26' E 004°51'1316.8
2017-Oct-13 19:13N 42°34' E 005°06'816.9
2017-Oct-13 18:46N 42°38' E 005°15'716.9
2017-Oct-13 18:23N 42°42' E 005°22'1116.8
2017-Oct-13 17:44N 42°48' E 005°34'2415.1
2017-Oct-13 16:08N 43°05' E 005°57'1 8.3
2017-Oct-13 16:01N 43°05' E 005°56'2 3.4
2017-Oct-13 15:29N 43°06' E 005°54'0 0.0
2017-Oct-13 14:59N 43°06' E 005°54'0 0.0
2017-Oct-13 14:29N 43°06' E 005°54'0 0.0
2017-Oct-13 13:56N 43°06' E 005°54'0 0.0
2017-Oct-13 13:26N 43°06' E 005°54'0 0.0
2017-Oct-13 12:59N 43°06' E 005°54'0 0.0
2017-Oct-13 12:29N 43°06' E 005°54'0 0.0
2017-Oct-13 11:59N 43°06' E 005°54'0 0.0
2017-Oct-13 11:26N 43°06' E 005°54'0 0.0
2017-Oct-13 10:59N 43°06' E 005°54'0 0.0
2017-Oct-13 10:29N 43°06' E 005°54'0 0.0
2017-Oct-13 09:59N 43°06' E 005°54'0 0.0
2017-Oct-13 09:29N 43°06' E 005°54'0 0.0
2017-Oct-13 08:59N 43°06' E 005°54'0 0.0
2017-Oct-13 08:26N 43°06' E 005°54'0 0.0
2017-Oct-13 07:56N 43°06' E 005°54'0 0.0
2017-Oct-13 07:29N 43°06' E 005°54'0 0.0
2017-Oct-13 06:59N 43°06' E 005°54'0 0.0
2017-Oct-13 06:29N 43°06' E 005°54'0 0.0
2017-Oct-13 05:59N 43°06' E 005°54'0 0.6
2017-Oct-13 05:31N 43°06' E 005°54'2 4.7
2017-Oct-13 05:00N 43°05' E 005°57'2 3.5
2017-Oct-13 04:30N 43°04' E 005°59'5 7.8
2017-Oct-13 03:56N 43°00' E 006°01'3 7.4
2017-Oct-13 03:30N 42°57' E 006°02'4 7.8
2017-Oct-13 03:00N 42°53' E 006°04'4 7.8
2017-Oct-13 02:30N 42°50' E 006°05'4 8.1
2017-Oct-13 02:00N 42°46' E 006°07'4 8.0
2017-Oct-13 01:30N 42°44' E 006°12'4 8.4
2017-Oct-13 00:58N 42°44' E 006°18'8 8.2
2017-Oct-12 23:59N 42°44' E 006°29'13 7.6
2017-Oct-12 22:17N 42°52' E 006°43'18 8.2
2017-Oct-12 20:07N 43°05' E 006°59'1 8.4
2017-Oct-12 19:58N 43°06' E 007°00'4 8.3
2017-Oct-12 19:30N 43°09' E 007°04'4 8.5
2017-Oct-12 19:00N 43°12' E 007°07'4 8.6
2017-Oct-12 18:30N 43°16' E 007°11'4 8.5
2017-Oct-12 18:00N 43°19' E 007°15'4 8.3
2017-Oct-12 17:30N 43°23' E 007°17'4 8.2
2017-Oct-12 17:00N 43°27' E 007°17'4 8.3
2017-Oct-12 16:30N 43°31' E 007°18'4 8.3
2017-Oct-12 16:00N 43°35' E 007°18'4 8.0
2017-Oct-12 15:30N 43°39' E 007°18'2 0.2
2017-Oct-12 05:11N 43°41' E 007°19'1 4.8
2017-Oct-12 04:59N 43°40' E 007°19'5311.6
2017-Oct-12 00:28N 43°36' E 008°31'611.9
2017-Oct-11 23:59N 43°36' E 008°39'611.8
2017-Oct-11 23:30N 43°36' E 008°47'612.4
2017-Oct-11 23:00N 43°35' E 008°55'612.4
2017-Oct-11 22:30N 43°35' E 009°04'612.0
2017-Oct-11 22:00N 43°35' E 009°12'714.0
2017-Oct-11 21:30N 43°34' E 009°22'713.9
2017-Oct-11 21:00N 43°33' E 009°31'714.0
2017-Oct-11 20:30N 43°33' E 009°41'714.0
2017-Oct-11 20:01N 43°32' E 009°51'713.6
2017-Oct-11 19:30N 43°32' E 009°60'713.5
2017-Oct-11 19:00N 43°31' E 010°09'611.6
2017-Oct-11 18:30N 43°32' E 010°17'1 2.2
2017-Oct-11 18:00N 43°33' E 010°18'0 0.0
2017-Oct-11 17:30N 43°33' E 010°18'0 0.0
2017-Oct-11 17:00N 43°33' E 010°18'63 3.7
2017-Oct-11 00:00N 42°30' E 010°18'713.7
2017-Oct-10 23:30N 42°25' E 010°24'713.8
2017-Oct-10 23:00N 42°20' E 010°31'713.9
2017-Oct-10 22:30N 42°15' E 010°37'713.7
2017-Oct-10 22:00N 42°10' E 010°43'178 6.4
2017-Oct-09 18:16N 40°44' E 014°10'3 9.7
2017-Oct-09 18:00N 40°45' E 014°13'510.6
2017-Oct-09 17:30N 40°50' E 014°17'1 1.8
2017-Oct-09 16:56N 40°50' E 014°15'0 0.0
2017-Oct-09 16:26N 40°50' E 014°15'0 0.0
2017-Oct-09 15:59N 40°50' E 014°15'0 0.0
2017-Oct-09 15:29N 40°50' E 014°15'0 0.0
2017-Oct-09 14:59N 40°50' E 014°15'0 0.0
2017-Oct-09 14:11N 40°50' E 014°15'0 0.0
2017-Oct-09 07:05N 40°50' E 014°15'0 0.0
2017-Oct-09 06:53N 40°50' E 014°15'0 0.0
2017-Oct-09 06:30N 40°50' E 014°15'2 3.3
2017-Oct-09 05:59N 40°49' E 014°17'  

Dump ship's entire track history